logo
Rechercher aéroport 
image banner adimage banner adimage banner ad
image banner ad

FABALL - Ballito Bay -Dophin Coast-

Situé à , South Africa

ICAO - , IATA -

Données fournies par Airmate  

Information générale

Coordonnées: S29°29'20" E31°10'44"
Élévation : 200 feet MSL.
 
Voir autres Aéroports à Kwazulu-Natal

Données opérationnelles

Special qualification required
Heure actuelle UTC:
Heure actuelle locale:
Météo à : FALE - King Shaka International ( 15 km )
METAR: FALE 251700Z VRB01KT 9999 BKN036 17/15 Q1021 NOSIG
TAF: TAF FALE 251600Z 2518/2624 33004KT 9999 SCT030 TX25/2612Z TN13/2603Z BECMG 2608/2610 19015KT BECMG 2620/2622 24005KT
Voir NOTAMs / SUP AIP / TFR affectant cet aéroport [VIEW]
Fréquences de communication: [VIEW]

Pistes:

Identifiant RWYQFULongueur (ft)Largeur (ft)SurfaceLDA (ft)
0880°177266GRASS
26260°177266GRASS

Coordonnées de l'aéroport

Adresse: South Africa

Vue satellite de FABALL